sensor_id;sensor_type;location;lat;lon;timestamp;P1;durP1;ratioP1;P2;durP2;ratioP2
45728;SDS011;31439;53.512;10.206;2023-02-13T00:00:03;24.80;;;15.95;;
45728;SDS011;31439;53.512;10.206;2023-02-13T00:02:29;24.98;;;15.90;;
45728;SDS011;31439;53.512;10.206;2023-02-13T00:04:55;26.27;;;15.73;;
45728;SDS011;31439;53.512;10.206;2023-02-13T00:07:21;25.15;;;16.50;;
45728;SDS011;31439;53.512;10.206;2023-02-13T00:09:47;25.55;;;16.23;;
45728;SDS011;31439;53.512;10.206;2023-02-13T00:12:13;24.17;;;15.77;;
45728;SDS011;31439;53.512;10.206;2023-02-13T00:14:39;27.60;;;16.45;;
45728;SDS011;31439;53.512;10.206;2023-02-13T00:17:05;25.80;;;16.70;;
45728;SDS011;31439;53.512;10.206;2023-02-13T00:19:32;27.27;;;16.40;;
45728;SDS011;31439;53.512;10.206;2023-02-13T00:21:58;29.58;;;17.02;;
45728;SDS011;31439;53.512;10.206;2023-02-13T00:24:24;26.40;;;17.42;;
45728;SDS011;31439;53.512;10.206;2023-02-13T00:26:50;25.75;;;17.40;;
45728;SDS011;31439;53.512;10.206;2023-02-13T00:29:16;30.55;;;18.48;;
45728;SDS011;31439;53.512;10.206;2023-02-13T00:31:42;27.30;;;17.83;;
45728;SDS011;31439;53.512;10.206;2023-02-13T00:34:08;26.73;;;17.13;;
45728;SDS011;31439;53.512;10.206;2023-02-13T00:36:34;25.65;;;18.15;;
45728;SDS011;31439;53.512;10.206;2023-02-13T00:39:00;29.80;;;18.15;;
45728;SDS011;31439;53.512;10.206;2023-02-13T00:41:26;26.65;;;17.52;;
45728;SDS011;31439;53.512;10.206;2023-02-13T00:43:52;28.90;;;18.85;;
45728;SDS011;31439;53.512;10.206;2023-02-13T00:46:18;28.63;;;17.42;;
45728;SDS011;31439;53.512;10.206;2023-02-13T00:48:44;27.55;;;17.85;;
45728;SDS011;31439;53.512;10.206;2023-02-13T00:51:11;28.25;;;17.85;;
45728;SDS011;31439;53.512;10.206;2023-02-13T00:53:37;27.77;;;18.23;;
45728;SDS011;31439;53.512;10.206;2023-02-13T00:56:03;26.73;;;17.75;;
45728;SDS011;31439;53.512;10.206;2023-02-13T00:58:30;28.90;;;18.05;;
45728;SDS011;31439;53.512;10.206;2023-02-13T01:00:56;30.08;;;18.27;;
45728;SDS011;31439;53.512;10.206;2023-02-13T01:03:22;28.90;;;18.17;;
45728;SDS011;31439;53.512;10.206;2023-02-13T01:05:48;30.65;;;18.77;;
45728;SDS011;31439;53.512;10.206;2023-02-13T01:08:15;27.90;;;18.45;;
45728;SDS011;31439;53.512;10.206;2023-02-13T01:10:41;31.92;;;19.58;;
45728;SDS011;31439;53.512;10.206;2023-02-13T01:13:08;29.48;;;18.65;;
45728;SDS011;31439;53.512;10.206;2023-02-13T01:15:34;29.27;;;18.88;;
45728;SDS011;31439;53.512;10.206;2023-02-13T01:18:00;29.98;;;18.60;;
45728;SDS011;31439;53.512;10.206;2023-02-13T01:20:27;30.52;;;19.55;;
45728;SDS011;31439;53.512;10.206;2023-02-13T01:22:53;28.10;;;18.73;;
45728;SDS011;31439;53.512;10.206;2023-02-13T01:25:19;30.58;;;18.70;;
45728;SDS011;31439;53.512;10.206;2023-02-13T01:27:45;32.67;;;18.65;;
45728;SDS011;31439;53.512;10.206;2023-02-13T01:30:12;27.98;;;17.88;;
45728;SDS011;31439;53.512;10.206;2023-02-13T01:32:39;28.15;;;18.42;;
45728;SDS011;31439;53.512;10.206;2023-02-13T01:35:05;30.23;;;19.13;;
45728;SDS011;31439;53.512;10.206;2023-02-13T01:37:31;28.85;;;18.17;;
45728;SDS011;31439;53.512;10.206;2023-02-13T01:39:57;30.02;;;18.00;;
45728;SDS011;31439;53.512;10.206;2023-02-13T01:42:24;26.08;;;17.52;;
45728;SDS011;31439;53.512;10.206;2023-02-13T01:47:23;29.17;;;17.58;;
45728;SDS011;31439;53.512;10.206;2023-02-13T01:49:49;26.65;;;17.42;;
45728;SDS011;31439;53.512;10.206;2023-02-13T01:52:19;26.10;;;16.55;;
45728;SDS011;31439;53.512;10.206;2023-02-13T01:54:45;25.98;;;16.30;;
45728;SDS011;31439;53.512;10.206;2023-02-13T01:57:18;25.92;;;16.70;;
45728;SDS011;31439;53.512;10.206;2023-02-13T01:59:53;23.90;;;16.10;;
45728;SDS011;31439;53.512;10.206;2023-02-13T02:02:20;24.85;;;16.02;;
45728;SDS011;31439;53.512;10.206;2023-02-13T02:04:47;24.02;;;16.17;;
45728;SDS011;31439;53.512;10.206;2023-02-13T02:07:23;25.50;;;16.27;;
45728;SDS011;31439;53.512;10.206;2023-02-13T02:09:49;29.42;;;16.77;;
45728;SDS011;31439;53.512;10.206;2023-02-13T02:12:20;26.52;;;16.33;;
45728;SDS011;31439;53.512;10.206;2023-02-13T02:14:47;25.83;;;16.73;;
45728;SDS011;31439;53.512;10.206;2023-02-13T02:17:14;27.10;;;16.92;;
45728;SDS011;31439;53.512;10.206;2023-02-13T02:20:02;25.60;;;17.27;;
45728;SDS011;31439;53.512;10.206;2023-02-13T02:25:44;24.98;;;16.55;;
45728;SDS011;31439;53.512;10.206;2023-02-13T02:32:56;24.80;;;17.27;;
45728;SDS011;31439;53.512;10.206;2023-02-13T02:35:28;26.00;;;17.05;;
45728;SDS011;31439;53.512;10.206;2023-02-13T02:40:50;23.80;;;16.10;;
45728;SDS011;31439;53.512;10.206;2023-02-13T02:48:31;24.13;;;15.68;;
45728;SDS011;31439;53.512;10.206;2023-02-13T02:53:44;21.17;;;14.38;;
45728;SDS011;31439;53.512;10.206;2023-02-13T02:56:25;23.00;;;14.38;;
45728;SDS011;31439;53.512;10.206;2023-02-13T02:58:56;23.35;;;14.55;;
45728;SDS011;31439;53.512;10.206;2023-02-13T03:01:42;23.88;;;15.80;;
45728;SDS011;31439;53.512;10.206;2023-02-13T03:04:47;28.85;;;15.93;;
45728;SDS011;31439;53.512;10.206;2023-02-13T03:07:34;25.02;;;15.35;;
45728;SDS011;31439;53.512;10.206;2023-02-13T03:10:04;22.48;;;14.90;;
45728;SDS011;31439;53.512;10.206;2023-02-13T03:12:50;22.98;;;14.50;;
45728;SDS011;31439;53.512;10.206;2023-02-13T03:15:38;21.92;;;14.65;;
45728;SDS011;31439;53.512;10.206;2023-02-13T03:18:24;24.25;;;15.27;;
45728;SDS011;31439;53.512;10.206;2023-02-13T03:21:12;26.70;;;15.27;;
45728;SDS011;31439;53.512;10.206;2023-02-13T03:24:10;21.13;;;14.48;;
45728;SDS011;31439;53.512;10.206;2023-02-13T03:29:29;27.07;;;14.57;;
45728;SDS011;31439;53.512;10.206;2023-02-13T03:32:25;24.75;;;15.45;;
45728;SDS011;31439;53.512;10.206;2023-02-13T03:38:02;19.98;;;13.40;;
45728;SDS011;31439;53.512;10.206;2023-02-13T03:40:36;20.15;;;12.82;;
45728;SDS011;31439;53.512;10.206;2023-02-13T03:43:25;19.98;;;12.52;;
45728;SDS011;31439;53.512;10.206;2023-02-13T03:45:52;19.00;;;12.77;;
45728;SDS011;31439;53.512;10.206;2023-02-13T03:48:33;18.65;;;12.75;;
45728;SDS011;31439;53.512;10.206;2023-02-13T03:51:24;19.77;;;11.80;;
45728;SDS011;31439;53.512;10.206;2023-02-13T03:53:53;18.42;;;12.45;;
45728;SDS011;31439;53.512;10.206;2023-02-13T03:56:20;18.10;;;10.98;;
45728;SDS011;31439;53.512;10.206;2023-02-13T03:59:06;19.35;;;11.82;;
45728;SDS011;31439;53.512;10.206;2023-02-13T04:01:44;17.65;;;11.27;;
45728;SDS011;31439;53.512;10.206;2023-02-13T04:04:13;19.95;;;11.85;;
45728;SDS011;31439;53.512;10.206;2023-02-13T04:06:46;16.38;;;11.02;;
45728;SDS011;31439;53.512;10.206;2023-02-13T04:09:14;17.73;;;11.02;;
45728;SDS011;31439;53.512;10.206;2023-02-13T04:17:14;17.92;;;10.85;;
45728;SDS011;31439;53.512;10.206;2023-02-13T04:19:42;16.77;;;10.80;;
45728;SDS011;31439;53.512;10.206;2023-02-13T04:22:10;16.88;;;11.43;;
45728;SDS011;31439;53.512;10.206;2023-02-13T04:24:36;15.73;;;11.35;;
45728;SDS011;31439;53.512;10.206;2023-02-13T04:27:02;17.75;;;11.80;;
45728;SDS011;31439;53.512;10.206;2023-02-13T04:29:28;17.20;;;10.80;;
45728;SDS011;31439;53.512;10.206;2023-02-13T04:31:54;16.42;;;11.70;;
45728;SDS011;31439;53.512;10.206;2023-02-13T04:34:20;16.90;;;11.95;;
45728;SDS011;31439;53.512;10.206;2023-02-13T04:36:46;17.52;;;11.80;;
45728;SDS011;31439;53.512;10.206;2023-02-13T04:39:12;19.33;;;12.40;;
45728;SDS011;31439;53.512;10.206;2023-02-13T04:41:41;17.02;;;11.05;;
45728;SDS011;31439;53.512;10.206;2023-02-13T04:44:07;18.73;;;12.63;;
45728;SDS011;31439;53.512;10.206;2023-02-13T04:46:33;20.23;;;12.02;;
45728;SDS011;31439;53.512;10.206;2023-02-13T04:48:59;19.98;;;12.05;;
45728;SDS011;31439;53.512;10.206;2023-02-13T04:51:25;22.13;;;12.40;;
45728;SDS011;31439;53.512;10.206;2023-02-13T04:53:51;19.90;;;12.43;;
45728;SDS011;31439;53.512;10.206;2023-02-13T04:56:17;19.13;;;12.80;;
45728;SDS011;31439;53.512;10.206;2023-02-13T04:58:43;17.67;;;12.55;;
45728;SDS011;31439;53.512;10.206;2023-02-13T05:01:12;21.33;;;12.73;;
45728;SDS011;31439;53.512;10.206;2023-02-13T05:03:38;21.80;;;12.50;;
45728;SDS011;31439;53.512;10.206;2023-02-13T05:06:04;21.00;;;12.57;;
45728;SDS011;31439;53.512;10.206;2023-02-13T05:08:30;17.70;;;12.20;;
45728;SDS011;31439;53.512;10.206;2023-02-13T05:10:56;21.88;;;13.95;;
45728;SDS011;31439;53.512;10.206;2023-02-13T05:13:22;18.17;;;12.93;;
45728;SDS011;31439;53.512;10.206;2023-02-13T05:15:48;19.55;;;13.20;;
45728;SDS011;31439;53.512;10.206;2023-02-13T05:18:16;20.25;;;12.93;;
45728;SDS011;31439;53.512;10.206;2023-02-13T05:20:42;20.30;;;12.93;;
45728;SDS011;31439;53.512;10.206;2023-02-13T05:23:12;24.58;;;13.15;;
45728;SDS011;31439;53.512;10.206;2023-02-13T05:25:47;20.85;;;12.90;;
45728;SDS011;31439;53.512;10.206;2023-02-13T05:28:14;18.25;;;12.23;;
45728;SDS011;31439;53.512;10.206;2023-02-13T05:30:58;18.77;;;12.00;;
45728;SDS011;31439;53.512;10.206;2023-02-13T05:33:25;17.65;;;12.73;;
45728;SDS011;31439;53.512;10.206;2023-02-13T05:35:51;18.25;;;12.13;;
45728;SDS011;31439;53.512;10.206;2023-02-13T05:38:17;21.92;;;13.40;;
45728;SDS011;31439;53.512;10.206;2023-02-13T05:40:43;20.30;;;13.35;;
45728;SDS011;31439;53.512;10.206;2023-02-13T05:43:09;19.90;;;13.02;;
45728;SDS011;31439;53.512;10.206;2023-02-13T05:45:35;21.02;;;12.77;;
45728;SDS011;31439;53.512;10.206;2023-02-13T05:48:01;20.95;;;12.93;;
45728;SDS011;31439;53.512;10.206;2023-02-13T05:50:29;20.02;;;12.55;;
45728;SDS011;31439;53.512;10.206;2023-02-13T05:52:58;19.38;;;13.02;;
45728;SDS011;31439;53.512;10.206;2023-02-13T05:55:24;21.63;;;13.40;;
45728;SDS011;31439;53.512;10.206;2023-02-13T05:57:54;19.23;;;13.25;;
45728;SDS011;31439;53.512;10.206;2023-02-13T06:00:20;18.27;;;13.02;;
45728;SDS011;31439;53.512;10.206;2023-02-13T06:02:46;19.20;;;13.32;;
45728;SDS011;31439;53.512;10.206;2023-02-13T06:05:12;19.48;;;13.52;;
45728;SDS011;31439;53.512;10.206;2023-02-13T06:07:38;20.92;;;13.30;;
45728;SDS011;31439;53.512;10.206;2023-02-13T06:10:04;20.30;;;13.93;;
45728;SDS011;31439;53.512;10.206;2023-02-13T06:12:30;21.65;;;13.35;;
45728;SDS011;31439;53.512;10.206;2023-02-13T06:14:56;22.00;;;13.02;;
45728;SDS011;31439;53.512;10.206;2023-02-13T06:17:22;20.05;;;13.10;;
45728;SDS011;31439;53.512;10.206;2023-02-13T06:19:48;17.65;;;12.32;;
45728;SDS011;31439;53.512;10.206;2023-02-13T06:22:14;20.92;;;13.25;;
45728;SDS011;31439;53.512;10.206;2023-02-13T06:24:40;21.40;;;13.05;;
45728;SDS011;31439;53.512;10.206;2023-02-13T06:27:06;19.70;;;12.75;;
45728;SDS011;31439;53.512;10.206;2023-02-13T06:29:32;19.83;;;13.00;;
45728;SDS011;31439;53.512;10.206;2023-02-13T06:31:58;22.55;;;13.98;;
45728;SDS011;31439;53.512;10.206;2023-02-13T06:34:24;21.73;;;13.18;;
45728;SDS011;31439;53.512;10.206;2023-02-13T06:36:50;23.42;;;13.45;;
45728;SDS011;31439;53.512;10.206;2023-02-13T06:39:16;20.02;;;14.10;;
45728;SDS011;31439;53.512;10.206;2023-02-13T06:41:42;21.58;;;13.88;;
45728;SDS011;31439;53.512;10.206;2023-02-13T06:44:08;21.98;;;13.75;;
45728;SDS011;31439;53.512;10.206;2023-02-13T06:46:35;22.40;;;13.65;;
45728;SDS011;31439;53.512;10.206;2023-02-13T06:49:01;17.30;;;11.73;;
45728;SDS011;31439;53.512;10.206;2023-02-13T06:51:27;19.30;;;13.07;;
45728;SDS011;31439;53.512;10.206;2023-02-13T06:53:53;19.88;;;14.38;;
45728;SDS011;31439;53.512;10.206;2023-02-13T06:56:19;22.58;;;13.93;;
45728;SDS011;31439;53.512;10.206;2023-02-13T06:58:45;20.85;;;13.63;;
45728;SDS011;31439;53.512;10.206;2023-02-13T07:01:11;20.00;;;13.90;;
45728;SDS011;31439;53.512;10.206;2023-02-13T07:03:37;19.88;;;14.02;;
45728;SDS011;31439;53.512;10.206;2023-02-13T07:06:03;19.75;;;14.25;;
45728;SDS011;31439;53.512;10.206;2023-02-13T07:08:29;20.55;;;14.25;;
45728;SDS011;31439;53.512;10.206;2023-02-13T07:10:55;24.95;;;15.50;;
45728;SDS011;31439;53.512;10.206;2023-02-13T07:13:21;24.27;;;15.02;;
45728;SDS011;31439;53.512;10.206;2023-02-13T07:15:47;24.95;;;15.90;;
45728;SDS011;31439;53.512;10.206;2023-02-13T07:18:13;24.55;;;15.93;;
45728;SDS011;31439;53.512;10.206;2023-02-13T07:20:39;24.52;;;15.85;;
45728;SDS011;31439;53.512;10.206;2023-02-13T07:23:05;24.55;;;15.85;;
45728;SDS011;31439;53.512;10.206;2023-02-13T07:25:32;24.25;;;15.88;;
45728;SDS011;31439;53.512;10.206;2023-02-13T07:28:02;24.55;;;16.25;;
45728;SDS011;31439;53.512;10.206;2023-02-13T07:30:29;25.42;;;15.55;;
45728;SDS011;31439;53.512;10.206;2023-02-13T07:32:58;27.75;;;15.63;;
45728;SDS011;31439;53.512;10.206;2023-02-13T07:35:24;29.73;;;15.55;;
45728;SDS011;31439;53.512;10.206;2023-02-13T07:37:52;22.83;;;14.27;;
45728;SDS011;31439;53.512;10.206;2023-02-13T07:40:19;20.92;;;14.05;;
45728;SDS011;31439;53.512;10.206;2023-02-13T07:42:45;22.75;;;13.80;;
45728;SDS011;31439;53.512;10.206;2023-02-13T07:45:11;23.27;;;14.48;;
45728;SDS011;31439;53.512;10.206;2023-02-13T07:47:39;23.63;;;13.63;;
45728;SDS011;31439;53.512;10.206;2023-02-13T07:50:05;22.20;;;13.38;;
45728;SDS011;31439;53.512;10.206;2023-02-13T07:52:31;20.75;;;13.25;;
45728;SDS011;31439;53.512;10.206;2023-02-13T07:54:57;21.63;;;13.80;;
45728;SDS011;31439;53.512;10.206;2023-02-13T07:57:23;20.42;;;13.18;;
45728;SDS011;31439;53.512;10.206;2023-02-13T07:59:49;24.08;;;13.10;;
45728;SDS011;31439;53.512;10.206;2023-02-13T08:02:15;21.13;;;13.98;;
45728;SDS011;31439;53.512;10.206;2023-02-13T08:04:42;21.73;;;13.70;;
45728;SDS011;31439;53.512;10.206;2023-02-13T08:07:10;20.45;;;13.80;;
45728;SDS011;31439;53.512;10.206;2023-02-13T08:09:36;24.52;;;13.85;;
45728;SDS011;31439;53.512;10.206;2023-02-13T08:12:20;23.33;;;13.90;;
45728;SDS011;31439;53.512;10.206;2023-02-13T08:14:47;21.42;;;13.80;;
45728;SDS011;31439;53.512;10.206;2023-02-13T08:17:13;23.38;;;13.10;;
45728;SDS011;31439;53.512;10.206;2023-02-13T08:19:39;23.80;;;12.90;;
45728;SDS011;31439;53.512;10.206;2023-02-13T08:22:05;22.05;;;13.32;;
45728;SDS011;31439;53.512;10.206;2023-02-13T08:24:31;25.02;;;13.93;;
45728;SDS011;31439;53.512;10.206;2023-02-13T08:26:57;20.75;;;13.40;;
45728;SDS011;31439;53.512;10.206;2023-02-13T08:29:23;21.38;;;13.55;;
45728;SDS011;31439;53.512;10.206;2023-02-13T08:31:49;25.60;;;13.48;;
45728;SDS011;31439;53.512;10.206;2023-02-13T08:34:15;21.52;;;13.95;;
45728;SDS011;31439;53.512;10.206;2023-02-13T08:36:41;22.63;;;13.90;;
45728;SDS011;31439;53.512;10.206;2023-02-13T08:39:08;23.17;;;14.05;;
45728;SDS011;31439;53.512;10.206;2023-02-13T08:41:34;20.40;;;13.73;;
45728;SDS011;31439;53.512;10.206;2023-02-13T08:44:00;22.88;;;14.48;;
45728;SDS011;31439;53.512;10.206;2023-02-13T08:46:26;25.30;;;14.23;;
45728;SDS011;31439;53.512;10.206;2023-02-13T08:48:53;26.83;;;14.98;;
45728;SDS011;31439;53.512;10.206;2023-02-13T08:51:19;21.30;;;14.40;;
45728;SDS011;31439;53.512;10.206;2023-02-13T08:53:45;24.63;;;14.57;;
45728;SDS011;31439;53.512;10.206;2023-02-13T08:56:11;24.50;;;14.02;;
45728;SDS011;31439;53.512;10.206;2023-02-13T08:58:37;24.30;;;14.68;;
45728;SDS011;31439;53.512;10.206;2023-02-13T09:01:04;23.05;;;14.60;;
45728;SDS011;31439;53.512;10.206;2023-02-13T09:03:30;30.70;;;14.05;;
45728;SDS011;31439;53.512;10.206;2023-02-13T09:05:59;25.08;;;15.05;;
45728;SDS011;31439;53.512;10.206;2023-02-13T09:08:25;21.38;;;14.90;;
45728;SDS011;31439;53.512;10.206;2023-02-13T09:10:56;20.65;;;13.80;;
45728;SDS011;31439;53.512;10.206;2023-02-13T09:13:22;21.52;;;13.90;;
45728;SDS011;31439;53.512;10.206;2023-02-13T09:15:48;23.60;;;15.05;;
45728;SDS011;31439;53.512;10.206;2023-02-13T09:18:14;20.42;;;14.32;;
45728;SDS011;31439;53.512;10.206;2023-02-13T09:20:43;21.70;;;14.50;;
45728;SDS011;31439;53.512;10.206;2023-02-13T09:23:09;24.45;;;14.50;;
45728;SDS011;31439;53.512;10.206;2023-02-13T09:25:35;22.75;;;15.38;;
45728;SDS011;31439;53.512;10.206;2023-02-13T09:28:01;26.77;;;15.32;;
45728;SDS011;31439;53.512;10.206;2023-02-13T09:30:27;25.73;;;16.00;;
45728;SDS011;31439;53.512;10.206;2023-02-13T09:32:53;24.42;;;15.30;;
45728;SDS011;31439;53.512;10.206;2023-02-13T09:35:20;21.90;;;14.38;;
45728;SDS011;31439;53.512;10.206;2023-02-13T09:37:46;23.05;;;15.10;;
45728;SDS011;31439;53.512;10.206;2023-02-13T09:40:24;23.27;;;14.82;;
45728;SDS011;31439;53.512;10.206;2023-02-13T09:42:51;24.52;;;14.48;;
45728;SDS011;31439;53.512;10.206;2023-02-13T09:45:18;20.55;;;11.52;;
45728;SDS011;31439;53.512;10.206;2023-02-13T09:47:45;25.75;;;16.25;;
45728;SDS011;31439;53.512;10.206;2023-02-13T09:50:16;23.50;;;14.55;;
45728;SDS011;31439;53.512;10.206;2023-02-13T09:52:44;23.75;;;12.48;;
45728;SDS011;31439;53.512;10.206;2023-02-13T09:55:14;23.73;;;14.02;;
45728;SDS011;31439;53.512;10.206;2023-02-13T10:00:30;22.30;;;14.85;;
45728;SDS011;31439;53.512;10.206;2023-02-13T10:05:45;23.02;;;15.27;;
45728;SDS011;31439;53.512;10.206;2023-02-13T10:11:03;23.25;;;14.80;;
45728;SDS011;31439;53.512;10.206;2023-02-13T10:16:23;26.95;;;16.38;;
45728;SDS011;31439;53.512;10.206;2023-02-13T10:18:56;24.77;;;16.02;;
45728;SDS011;31439;53.512;10.206;2023-02-13T10:21:25;25.45;;;16.08;;
45728;SDS011;31439;53.512;10.206;2023-02-13T10:23:58;24.88;;;15.43;;
45728;SDS011;31439;53.512;10.206;2023-02-13T10:26:26;23.85;;;15.38;;
45728;SDS011;31439;53.512;10.206;2023-02-13T10:29:08;24.42;;;15.13;;
45728;SDS011;31439;53.512;10.206;2023-02-13T10:32:03;24.92;;;16.08;;
45728;SDS011;31439;53.512;10.206;2023-02-13T10:34:34;29.02;;;16.05;;
45728;SDS011;31439;53.512;10.206;2023-02-13T10:37:00;23.60;;;15.38;;
45728;SDS011;31439;53.512;10.206;2023-02-13T10:39:28;28.63;;;16.00;;
45728;SDS011;31439;53.512;10.206;2023-02-13T11:00:34;26.90;;;16.30;;
45728;SDS011;31439;53.512;10.206;2023-02-13T11:03:03;23.33;;;15.10;;
45728;SDS011;31439;53.512;10.206;2023-02-13T11:05:35;24.50;;;15.85;;
45728;SDS011;31439;53.512;10.206;2023-02-13T11:08:02;25.95;;;16.58;;
45728;SDS011;31439;53.512;10.206;2023-02-13T11:10:28;24.00;;;15.40;;
45728;SDS011;31439;53.512;10.206;2023-02-13T11:12:58;27.77;;;16.15;;
45728;SDS011;31439;53.512;10.206;2023-02-13T11:15:39;25.60;;;15.98;;
45728;SDS011;31439;53.512;10.206;2023-02-13T11:18:23;31.30;;;16.42;;
45728;SDS011;31439;53.512;10.206;2023-02-13T11:20:57;25.17;;;15.23;;
45728;SDS011;31439;53.512;10.206;2023-02-13T11:26:03;24.20;;;16.20;;
45728;SDS011;31439;53.512;10.206;2023-02-13T11:28:34;22.60;;;15.38;;
45728;SDS011;31439;53.512;10.206;2023-02-13T11:31:18;23.75;;;15.13;;
45728;SDS011;31439;53.512;10.206;2023-02-13T11:33:46;25.83;;;16.40;;
45728;SDS011;31439;53.512;10.206;2023-02-13T11:36:14;23.50;;;15.73;;
45728;SDS011;31439;53.512;10.206;2023-02-13T11:38:40;25.48;;;15.55;;
45728;SDS011;31439;53.512;10.206;2023-02-13T11:41:08;22.85;;;15.63;;
45728;SDS011;31439;53.512;10.206;2023-02-13T11:46:09;28.55;;;17.05;;
45728;SDS011;31439;53.512;10.206;2023-02-13T11:48:39;25.88;;;17.42;;
45728;SDS011;31439;53.512;10.206;2023-02-13T11:51:05;29.83;;;17.15;;
45728;SDS011;31439;53.512;10.206;2023-02-13T11:53:40;26.20;;;17.25;;
45728;SDS011;31439;53.512;10.206;2023-02-13T11:56:08;30.95;;;17.13;;
45728;SDS011;31439;53.512;10.206;2023-02-13T11:58:34;24.33;;;15.90;;
45728;SDS011;31439;53.512;10.206;2023-02-13T12:01:08;26.35;;;15.77;;
45728;SDS011;31439;53.512;10.206;2023-02-13T12:03:34;24.40;;;15.63;;
45728;SDS011;31439;53.512;10.206;2023-02-13T12:08:30;25.48;;;15.45;;
45728;SDS011;31439;53.512;10.206;2023-02-13T12:10:57;22.52;;;14.90;;
45728;SDS011;31439;53.512;10.206;2023-02-13T12:13:34;21.38;;;14.10;;
45728;SDS011;31439;53.512;10.206;2023-02-13T12:16:04;22.92;;;13.57;;
45728;SDS011;31439;53.512;10.206;2023-02-13T12:18:36;21.70;;;13.32;;
45728;SDS011;31439;53.512;10.206;2023-02-13T12:21:05;21.40;;;13.23;;
45728;SDS011;31439;53.512;10.206;2023-02-13T12:29:07;23.58;;;14.43;;
45728;SDS011;31439;53.512;10.206;2023-02-13T12:36:54;24.70;;;13.63;;
45728;SDS011;31439;53.512;10.206;2023-02-13T13:05:24;24.58;;;15.40;;
45728;SDS011;31439;53.512;10.206;2023-02-13T13:11:00;27.73;;;14.88;;
45728;SDS011;31439;53.512;10.206;2023-02-13T13:16:08;35.92;;;16.38;;
45728;SDS011;31439;53.512;10.206;2023-02-13T13:18:45;27.23;;;16.52;;
45728;SDS011;31439;53.512;10.206;2023-02-13T13:26:22;26.83;;;16.23;;
45728;SDS011;31439;53.512;10.206;2023-02-13T13:28:51;26.73;;;15.73;;
45728;SDS011;31439;53.512;10.206;2023-02-13T13:31:19;27.02;;;16.05;;
45728;SDS011;31439;53.512;10.206;2023-02-13T13:33:48;26.45;;;16.67;;
45728;SDS011;31439;53.512;10.206;2023-02-13T13:49:28;33.60;;;18.80;;
45728;SDS011;31439;53.512;10.206;2023-02-13T13:54:35;37.65;;;22.00;;
45728;SDS011;31439;53.512;10.206;2023-02-13T14:07:33;30.70;;;19.38;;
45728;SDS011;31439;53.512;10.206;2023-02-13T14:09:59;31.15;;;18.85;;
45728;SDS011;31439;53.512;10.206;2023-02-13T14:14:54;31.02;;;18.70;;
45728;SDS011;31439;53.512;10.206;2023-02-13T14:20:15;31.17;;;18.58;;
45728;SDS011;31439;53.512;10.206;2023-02-13T14:22:45;34.72;;;19.35;;
45728;SDS011;31439;53.512;10.206;2023-02-13T14:25:24;34.35;;;20.08;;
45728;SDS011;31439;53.512;10.206;2023-02-13T14:27:55;33.13;;;20.23;;
45728;SDS011;31439;53.512;10.206;2023-02-13T14:30:25;31.20;;;19.20;;
45728;SDS011;31439;53.512;10.206;2023-02-13T14:32:52;39.75;;;19.98;;
45728;SDS011;31439;53.512;10.206;2023-02-13T14:38:22;33.67;;;20.13;;
45728;SDS011;31439;53.512;10.206;2023-02-13T14:40:50;36.30;;;20.45;;
45728;SDS011;31439;53.512;10.206;2023-02-13T14:49:12;32.63;;;19.38;;
45728;SDS011;31439;53.512;10.206;2023-02-13T14:51:23;36.35;;;21.25;;
45728;SDS011;31439;53.512;10.206;2023-02-13T14:54:41;31.10;;;18.98;;
45728;SDS011;31439;53.512;10.206;2023-02-13T14:56:38;34.65;;;20.67;;
45728;SDS011;31439;53.512;10.206;2023-02-13T14:59:12;33.28;;;20.17;;
45728;SDS011;31439;53.512;10.206;2023-02-13T15:01:45;33.90;;;19.90;;
45728;SDS011;31439;53.512;10.206;2023-02-13T15:04:14;30.77;;;18.73;;
45728;SDS011;31439;53.512;10.206;2023-02-13T15:06:44;33.58;;;20.05;;
45728;SDS011;31439;53.512;10.206;2023-02-13T15:09:16;33.05;;;19.42;;
45728;SDS011;31439;53.512;10.206;2023-02-13T15:11:44;33.22;;;19.40;;
45728;SDS011;31439;53.512;10.206;2023-02-13T15:14:14;34.53;;;20.25;;
45728;SDS011;31439;53.512;10.206;2023-02-13T15:16:40;33.13;;;19.30;;
45728;SDS011;31439;53.512;10.206;2023-02-13T15:19:10;33.85;;;19.98;;
45728;SDS011;31439;53.512;10.206;2023-02-13T15:21:39;30.50;;;18.77;;
45728;SDS011;31439;53.512;10.206;2023-02-13T15:24:12;30.20;;;19.33;;
45728;SDS011;31439;53.512;10.206;2023-02-13T15:26:41;33.10;;;19.33;;
45728;SDS011;31439;53.512;10.206;2023-02-13T15:29:15;30.10;;;18.48;;
45728;SDS011;31439;53.512;10.206;2023-02-13T15:31:41;33.90;;;19.85;;
45728;SDS011;31439;53.512;10.206;2023-02-13T15:36:52;31.90;;;19.60;;
45728;SDS011;31439;53.512;10.206;2023-02-13T15:39:21;29.65;;;18.42;;
45728;SDS011;31439;53.512;10.206;2023-02-13T15:41:48;40.30;;;20.75;;
45728;SDS011;31439;53.512;10.206;2023-02-13T15:44:22;35.70;;;20.70;;
45728;SDS011;31439;53.512;10.206;2023-02-13T15:46:49;35.13;;;20.48;;
45728;SDS011;31439;53.512;10.206;2023-02-13T15:49:17;35.35;;;20.73;;
45728;SDS011;31439;53.512;10.206;2023-02-13T15:51:44;32.42;;;19.73;;
45728;SDS011;31439;53.512;10.206;2023-02-13T15:59:12;30.88;;;18.45;;
45728;SDS011;31439;53.512;10.206;2023-02-13T16:01:39;29.67;;;19.50;;
45728;SDS011;31439;53.512;10.206;2023-02-13T16:04:08;35.15;;;19.92;;
45728;SDS011;31439;53.512;10.206;2023-02-13T16:06:36;33.53;;;20.27;;
45728;SDS011;31439;53.512;10.206;2023-02-13T16:09:03;34.25;;;20.30;;
45728;SDS011;31439;53.512;10.206;2023-02-13T16:11:36;34.58;;;21.20;;
45728;SDS011;31439;53.512;10.206;2023-02-13T16:14:21;38.83;;;21.05;;
45728;SDS011;31439;53.512;10.206;2023-02-13T16:21:50;36.75;;;21.77;;
45728;SDS011;31439;53.512;10.206;2023-02-13T16:24:16;36.72;;;21.30;;
45728;SDS011;31439;53.512;10.206;2023-02-13T16:26:43;34.50;;;21.33;;
45728;SDS011;31439;53.512;10.206;2023-02-13T16:29:10;33.50;;;20.38;;
45728;SDS011;31439;53.512;10.206;2023-02-13T16:31:38;37.05;;;21.02;;
45728;SDS011;31439;53.512;10.206;2023-02-13T16:36:49;36.47;;;21.10;;
45728;SDS011;31439;53.512;10.206;2023-02-13T16:39:17;39.78;;;22.00;;
45728;SDS011;31439;53.512;10.206;2023-02-13T16:41:44;39.08;;;23.50;;
45728;SDS011;31439;53.512;10.206;2023-02-13T16:44:26;36.10;;;21.45;;
45728;SDS011;31439;53.512;10.206;2023-02-13T16:46:53;38.38;;;22.23;;
45728;SDS011;31439;53.512;10.206;2023-02-13T16:49:21;36.05;;;21.42;;
45728;SDS011;31439;53.512;10.206;2023-02-13T16:54:28;38.03;;;23.48;;
45728;SDS011;31439;53.512;10.206;2023-02-13T17:02:18;37.80;;;21.70;;
45728;SDS011;31439;53.512;10.206;2023-02-13T17:04:51;39.65;;;22.55;;
45728;SDS011;31439;53.512;10.206;2023-02-13T17:07:30;39.13;;;21.80;;
45728;SDS011;31439;53.512;10.206;2023-02-13T17:09:57;40.13;;;23.38;;
45728;SDS011;31439;53.512;10.206;2023-02-13T17:12:24;43.72;;;22.55;;
45728;SDS011;31439;53.512;10.206;2023-02-13T17:14:50;39.60;;;22.55;;
45728;SDS011;31439;53.512;10.206;2023-02-13T17:17:18;39.70;;;23.08;;
45728;SDS011;31439;53.512;10.206;2023-02-13T17:19:44;41.70;;;23.30;;